Time;durP1;ratioP1;P1;durP2;ratioP2;P2;SDS_P1;SDS_P2;PMS_P1;PMS_P2;Temp;Humidity;BMP_temperature;BMP_pressure;BME280_temperature;BME280_humidity;BME280_pressure;Samples;Min_cycle;Max_cycle;Signal;HPM_P1;HPM_P2
2023/03/19 00:02:13;;;;;;;14.88;12.25;;;;;;;;;;4864396;29;20127;-85
2023/03/19 00:04:39;;;;;;;15.27;12.77;;;;;;;;;;4849127;29;20573;-85
2023/03/19 00:07:05;;;;;;;18.73;13.38;;;;;;;;;;4848958;29;20053;-86
2023/03/19 00:09:31;;;;;;;19.63;13.45;;;;;;;;;;4848511;29;20045;-85
2023/03/19 00:11:57;;;;;;;17.70;13.27;;;;;;;;;;4848468;29;20052;-84
2023/03/19 00:14:24;;;;;;;20.27;13.90;;;;;;;;;;4864342;29;20088;-85
2023/03/19 00:16:50;;;;;;;14.88;12.57;;;;;;;;;;4833674;29;20394;-85
2023/03/19 00:19:16;;;;;;;15.57;12.52;;;;;;;;;;4833676;29;20053;-85
2023/03/19 00:21:42;;;;;;;20.65;14.05;;;;;;;;;;4848437;29;20494;-85
2023/03/19 00:24:09;;;;;;;14.65;12.55;;;;;;;;;;4832432;29;20562;-85
2023/03/19 00:26:35;;;;;;;16.83;12.60;;;;;;;;;;4848542;29;20088;-85
2023/03/19 00:29:02;;;;;;;18.67;12.18;;;;;;;;;;4833466;29;20044;-85
2023/03/19 00:31:28;;;;;;;16.77;12.05;;;;;;;;;;4848155;29;20052;-85
2023/03/19 00:33:56;;;;;;;14.98;11.68;;;;;;;;;;4863428;29;20139;-86
2023/03/19 00:36:24;;;;;;;15.60;11.30;;;;;;;;;;4848517;29;20049;-86
2023/03/19 00:38:50;;;;;;;14.02;11.27;;;;;;;;;;4848275;29;20057;-84
2023/03/19 00:41:17;;;;;;;16.83;11.15;;;;;;;;;;4864114;29;20112;-85
2023/03/19 00:43:44;;;;;;;13.48;11.07;;;;;;;;;;4847971;29;20053;-85
2023/03/19 00:46:10;;;;;;;16.17;11.30;;;;;;;;;;4848185;29;20455;-85
2023/03/19 00:48:36;;;;;;;15.07;10.77;;;;;;;;;;4848538;29;20055;-85
2023/03/19 00:51:03;;;;;;;14.75;11.18;;;;;;;;;;4833117;29;20047;-86
2023/03/19 00:53:30;;;;;;;14.52;11.10;;;;;;;;;;4847869;29;20048;-85
2023/03/19 00:55:56;;;;;;;14.45;11.40;;;;;;;;;;4848300;29;20067;-85
2023/03/19 00:58:22;;;;;;;13.63;10.73;;;;;;;;;;4833590;29;20178;-85
2023/03/19 01:00:48;;;;;;;15.52;10.68;;;;;;;;;;4848157;29;20049;-85
2023/03/19 01:03:14;;;;;;;15.98;10.65;;;;;;;;;;4848008;29;20136;-85
2023/03/19 01:05:40;;;;;;;13.88;11.02;;;;;;;;;;4833024;29;20463;-85
2023/03/19 01:08:06;;;;;;;12.52;10.20;;;;;;;;;;4863234;29;20132;-85
2023/03/19 01:10:33;;;;;;;14.75;10.35;;;10.50;99.90;;;;;;4848319;29;20095;-86
2023/03/19 01:12:59;;;;;;;16.30;11.13;;;;;;;;;;4832580;29;20092;-85
2023/03/19 01:15:26;;;;;;;17.40;10.40;;;;;;;;;;4847548;29;20530;-86
2023/03/19 01:17:52;;;;;;;14.25;10.18;;;;;;;;;;4847572;29;20515;-85
2023/03/19 01:20:19;;;;;;;17.60;11.07;;;;;;;;;;4848069;29;20486;-86
2023/03/19 01:22:45;;;;;;;11.95;9.68;;;;;;;;;;4847300;29;20049;-86
2023/03/19 01:25:12;;;;;;;15.73;10.23;;;10.50;99.90;;;;;;4847651;29;20041;-85
2023/03/19 01:27:38;;;;;;;15.68;9.57;;;;;;;;;;4847524;29;20041;-84
2023/03/19 01:30:06;;;;;;;12.65;9.93;;;10.50;99.90;;;;;;4865059;29;20065;-83
2023/03/19 01:32:32;;;;;;;13.32;9.80;;;;;;;;;;4852474;29;20188;-85
2023/03/19 01:34:59;;;;;;;13.35;9.88;;;;;;;;;;4868269;29;20086;-83
2023/03/19 01:37:25;;;;;;;14.30;9.85;;;;;;;;;;4852886;29;20053;-84
2023/03/19 01:39:51;;;;;;;11.30;9.07;;;;;;;;;;4867813;29;20109;-85
2023/03/19 01:42:17;;;;;;;15.55;10.13;;;;;;;;;;4866328;29;20443;-84
2023/03/19 01:44:43;;;;;;;16.40;10.00;;;;;;;;;;4834494;29;20084;-85
2023/03/19 01:47:16;;;;;;;15.93;10.02;;;;;;;;;;4847375;29;20413;-85
2023/03/19 01:49:44;;;;;;;13.57;11.23;;;;;;;;;;4847315;29;20053;-85
2023/03/19 01:52:12;;;;;;;14.93;11.23;;;10.50;99.90;;;;;;4847432;29;20081;-85
2023/03/19 01:54:39;;;;;;;18.75;11.75;;;;;;;;;;4832254;29;20506;-86
2023/03/19 01:57:07;;;;;;;15.30;11.68;;;10.70;99.90;;;;;;4863047;29;20041;-86
2023/03/19 01:59:35;;;;;;;24.40;12.73;;;;;;;;;;4862727;29;20049;-87
2023/03/19 02:02:05;;;;;;;15.98;11.60;;;;;;;;;;4863064;29;20093;-87
2023/03/19 02:04:31;;;;;;;14.77;11.48;;;;;;;;;;4862553;29;20049;-86
2023/03/19 02:06:59;;;;;;;17.08;12.52;;;10.20;99.90;;;;;;4862467;29;20494;-86
2023/03/19 02:09:26;;;;;;;18.33;11.27;;;;;;;;;;4863156;29;20045;-86
2023/03/19 02:11:53;;;;;;;15.13;11.60;;;;;;;;;;4862342;29;20041;-85
2023/03/19 02:14:19;;;;;;;11.77;9.45;;;;;;;;;;4862177;29;20483;-86
2023/03/19 02:16:45;;;;;;;11.73;8.73;;;;;;;;;;4847401;29;20402;-87
2023/03/19 02:19:16;;;;;;;11.70;8.85;;;;;;;;;;4847281;29;20033;-86
2023/03/19 02:21:42;;;;;;;12.63;8.73;;;;;;;;;;4862539;29;20151;-86
2023/03/19 02:24:22;;;;;;;9.73;7.70;;;;;;;;;;4862245;29;20060;-86
2023/03/19 02:26:49;;;;;;;9.35;8.18;;;10.40;99.90;;;;;;4847419;29;20562;-85
2023/03/19 02:29:15;;;;;;;11.02;7.15;;;;;;;;;;4832463;29;20057;-86
2023/03/19 02:31:41;;;;;;;13.38;7.90;;;;;;;;;;4849684;29;20409;-87
2023/03/19 02:34:13;;;;;;;10.50;7.25;;;;;;;;;;4858282;29;20117;-85
2023/03/19 02:36:47;;;;;;;16.02;8.18;;;10.60;99.90;;;;;;4857938;29;20052;-85
2023/03/19 02:39:27;;;;;;;;;;;10.60;99.90;;;;;;4858855;29;20089;-87
2023/03/19 02:41:55;;;;;;;11.35;8.05;;;10.50;99.90;;;;;;4855567;29;19948;-86
2023/03/19 02:44:21;;;;;;;10.95;8.48;;;;;;;;;;4851379;29;20049;-86
2023/03/19 02:46:47;;;;;;;11.88;8.27;;;;;;;;;;4849525;29;20052;-85
2023/03/19 02:49:14;;;;;;;10.57;7.93;;;;;;;;;;4850454;29;20063;-85
2023/03/19 02:51:40;;;;;;;10.50;8.32;;;;;;;;;;4850421;29;20048;-86
2023/03/19 02:54:07;;;;;;;14.02;9.25;;;;;;;;;;4849950;29;20052;-85
2023/03/19 02:56:33;;;;;;;10.20;8.80;;;;;;;;;;4850190;29;20114;-85
2023/03/19 02:58:59;;;;;;;12.98;9.52;;;;;;;;;;4849787;29;20098;-85
2023/03/19 03:01:25;;;;;;;11.50;9.10;;;;;;;;;;4834845;29;20498;-86
2023/03/19 03:03:51;;;;;;;16.45;9.70;;;;;;;;;;4849537;29;20053;-85
2023/03/19 03:06:17;;;;;;;14.70;10.48;;;;;;;;;;4834728;29;20048;-86
2023/03/19 03:08:44;;;;;;;12.68;9.63;;;10.50;99.90;;;;;;4834639;29;20413;-87
2023/03/19 03:11:10;;;;;;;15.73;10.95;;;;;;;;;;4849727;29;20127;-86
2023/03/19 03:13:36;;;;;;;13.15;9.30;;;;;;;;;;4849514;29;20052;-87
2023/03/19 03:16:02;;;;;;;12.75;9.38;;;;;;;;;;4834372;29;20052;-87
2023/03/19 03:18:28;;;;;;;16.25;9.68;;;;;;;;;;4834589;29;20049;-87
2023/03/19 03:20:54;;;;;;;12.10;9.40;;;;;;;;;;4865111;29;20064;-87
2023/03/19 03:23:21;;;;;;;12.13;8.80;;;;;;;;;;4881680;29;20045;-87
2023/03/19 03:25:51;;;;;;;11.80;9.35;;;;;;;;;;4864828;29;20041;-87
2023/03/19 03:28:17;;;;;;;14.18;8.38;;;;;;;;;;4865000;29;20398;-87
2023/03/19 03:30:44;;;;;;;9.35;8.20;;;;;;;;;;4864736;29;20056;-87
2023/03/19 03:33:10;;;;;;;13.52;8.45;;;;;;;;;;4849761;29;20061;-87
2023/03/19 03:35:36;;;;;;;11.63;8.07;;;;;;;;;;4850011;29;20077;-85
2023/03/19 03:38:03;;;;;;;9.50;7.70;;;;;;;;;;4881481;29;20502;-85
2023/03/19 03:40:29;;;;;;;9.77;6.65;;;;;;;;;;4864437;29;20077;-87
2023/03/19 03:42:56;;;;;;;6.85;5.55;;;;;;;;;;4881749;29;20140;-85
2023/03/19 03:45:22;;;;;;;6.60;5.97;;;;;;;;;;4881560;29;20185;-85
2023/03/19 03:47:48;;;;;;;8.75;6.00;;;;;;;;;;4879804;29;20053;-86
2023/03/19 03:50:14;;;;;;;7.60;5.70;;;;;;;;;;4849039;29;20040;-85
2023/03/19 03:52:40;;;;;;;9.50;5.60;;;;;;;;;;4834267;29;20049;-86
2023/03/19 03:55:07;;;;;;;6.80;6.00;;;;;;;;;;4833830;29;20053;-85
2023/03/19 03:57:34;;;;;;;8.52;6.00;;;;;;;;;;4864020;29;20128;-85
2023/03/19 04:00:00;;;;;;;9.10;6.00;;;;;;;;;;4848607;29;20109;-86
2023/03/19 04:02:26;;;;;;;7.55;5.95;;;;;;;;;;4848759;29;20139;-86
2023/03/19 04:04:53;;;;;;;8.05;5.85;;;;;;;;;;4849141;29;20057;-92
2023/03/19 04:07:19;;;;;;;6.88;5.63;;;;;;;;;;4833882;29;20046;-92
2023/03/19 04:09:45;;;;;;;8.35;5.43;;;;;;;;;;4864383;29;20060;-92
2023/03/19 04:12:12;;;;;;;11.60;7.18;;;10.40;99.90;;;;;;4849946;29;20059;-90
2023/03/19 04:14:38;;;;;;;5.38;4.63;;;;;;;;;;4834405;29;20387;-90
2023/03/19 04:17:05;;;;;;;6.50;5.47;;;;;;;;;;4864564;29;20512;-93
2023/03/19 04:19:31;;;;;;;6.55;5.10;;;;;;;;;;4865247;29;20553;-93
2023/03/19 04:21:58;;;;;;;6.97;5.30;;;;;;;;;;4849886;29;20049;-92
2023/03/19 04:24:24;;;;;;;6.97;5.50;;;;;;;;;;4849316;29;20052;-93
2023/03/19 04:26:52;;;;;;;7.15;5.80;;;;;;;;;;4848687;29;20048;-92
2023/03/19 04:29:18;;;;;;;7.63;5.97;;;;;;;;;;4864370;29;20403;-91
2023/03/19 04:31:44;;;;;;;7.00;5.75;;;;;;;;;;4848987;29;20049;-90
2023/03/19 04:34:11;;;;;;;6.25;5.40;;;10.40;99.90;;;;;;4848400;29;20052;-90
2023/03/19 04:36:37;;;;;;;6.38;5.78;;;;;;;;;;4848793;29;20049;-90
2023/03/19 04:39:03;;;;;;;7.22;5.68;;;;;;;;;;4848671;29;20149;-90
2023/03/19 04:41:29;;;;;;;6.00;5.40;;;;;;;;;;4863717;29;20451;-89
2023/03/19 04:43:56;;;;;;;5.32;4.82;;;;;;;;;;4847988;29;20057;-88
2023/03/19 04:46:22;;;;;;;9.02;6.15;;;;;;;;;;4863804;29;20044;-88
2023/03/19 04:48:48;;;;;;;7.07;5.95;;;;;;;;;;4833090;29;20140;-84
2023/03/19 04:51:15;;;;;;;7.97;6.40;;;;;;;;;;4847947;29;20052;-85
2023/03/19 04:53:41;;;;;;;9.07;6.47;;;;;;;;;;4847718;29;20048;-85
2023/03/19 04:56:08;;;;;;;7.47;6.28;;;;;;;;;;4863490;29;20490;-85
2023/03/19 04:58:34;;;;;;;7.07;5.25;;;;;;;;;;4863088;29;20052;-84
2023/03/19 05:01:00;;;;;;;7.85;6.18;;;;;;;;;;4847992;29;20139;-84
2023/03/19 05:03:26;;;;;;;7.28;5.13;;;;;;;;;;4847828;29;20071;-84
2023/03/19 05:05:53;;;;;;;8.55;5.97;;;;;;;;;;4863247;29;20053;-84
2023/03/19 05:08:20;;;;;;;8.30;6.45;;;;;;;;;;4832495;29;20100;-84
2023/03/19 05:10:46;;;;;;;8.32;6.28;;;10.10;99.90;;;;;;4847677;29;20418;-85
2023/03/19 05:13:12;;;;;;;6.40;5.40;;;;;;;;;;4832223;29;20057;-84
2023/03/19 05:15:41;;;;;;;6.85;5.70;;;;;;;;;;4832491;29;20521;-85
2023/03/19 05:18:07;;;;;;;7.68;5.95;;;;;;;;;;4863390;29;20053;-84
2023/03/19 05:20:34;;;;;;;8.20;6.10;;;;;;;;;;4847966;29;20079;-84
2023/03/19 05:23:00;;;;;;;9.50;6.50;;;;;;;;;;4862939;29;20052;-84
2023/03/19 05:25:26;;;;;;;11.50;7.35;;;;;;;;;;4847814;29;20467;-84
2023/03/19 05:27:52;;;;;;;10.02;7.63;;;;;;;;;;4847673;29;20056;-84
2023/03/19 05:30:18;;;;;;;8.98;6.72;;;;;;;;;;4832244;29;20477;-85
2023/03/19 05:32:45;;;;;;;10.43;8.32;;;;;;;;;;4832771;29;20101;-84
2023/03/19 05:35:11;;;;;;;9.15;7.35;;;;;;;;;;4847685;29;20129;-85
2023/03/19 05:37:38;;;;;;;13.98;8.98;;;;;;;;;;4862659;29;20049;-85
2023/03/19 05:40:04;;;;;;;14.45;8.85;;;;;;;;;;4862849;29;20085;-85
2023/03/19 05:42:30;;;;;;;11.27;8.70;;;;;;;;;;4831666;29;20049;-85
2023/03/19 05:44:56;;;;;;;10.10;8.25;;;;;;;;;;4847281;29;20045;-85
2023/03/19 05:47:23;;;;;;;13.27;9.60;;;;;;;;;;4863216;29;20068;-85
2023/03/19 05:49:49;;;;;;;13.13;9.93;;;9.70;99.90;;;;;;4832935;29;20056;-85
2023/03/19 05:52:15;;;;;;;14.98;10.07;;;;;;;;;;4862848;29;20055;-86
2023/03/19 05:54:41;;;;;;;16.02;10.60;;;;;;;;;;4847091;29;20045;-85
2023/03/19 05:57:07;;;;;;;14.73;10.55;;;;;;;;;;4847098;29;20065;-85
2023/03/19 05:59:34;;;;;;;17.02;10.52;;;;;;;;;;4847965;29;20117;-84
2023/03/19 06:02:00;;;;;;;17.73;10.90;;;;;;;;;;4847322;29;20051;-85
2023/03/19 06:04:26;;;;;;;14.43;10.73;;;;;;;;;;4862337;29;20053;-84
2023/03/19 06:06:52;;;;;;;16.83;11.32;;;;;;;;;;4847682;29;20045;-84
2023/03/19 06:09:19;;;;;;;16.45;12.18;;;;;;;;;;4862649;29;20494;-89
2023/03/19 06:11:45;;;;;;;16.65;11.55;;;;;;;;;;4832380;29;20490;-85
2023/03/19 06:14:11;;;;;;;15.98;11.80;;;;;;;;;;4862616;29;20068;-86
2023/03/19 06:16:37;;;;;;;16.00;11.02;;;;;;;;;;4847218;29;20208;-86
2023/03/19 06:19:03;;;;;;;15.25;11.57;;;;;;;;;;4831922;29;20049;-89
2023/03/19 06:21:30;;;;;;;17.48;10.93;;;;;;;;;;4848277;29;20045;-84
2023/03/19 06:23:56;;;;;;;14.95;11.05;;;;;;;;;;4850888;29;20139;-89
2023/03/19 06:26:23;;;;;;;15.80;10.98;;;;;;;;;;4850782;29;20131;-89
2023/03/19 06:28:49;;;;;;;20.15;11.30;;;;;;;;;;4850817;29;20044;-85
2023/03/19 06:31:16;;;;;;;15.25;10.02;;;;;;;;;;4835401;29;20100;-90
2023/03/19 06:33:42;;;;;;;17.00;10.90;;;;;;;;;;4850556;29;20052;-84
2023/03/19 06:36:08;;;;;;;16.58;10.95;;;;;;;;;;4835154;29;20041;-86
2023/03/19 06:38:35;;;;;;;12.75;9.07;;;;;;;;;;4835446;29;20052;-88
2023/03/19 06:41:01;;;;;;;12.20;9.05;;;;;;;;;;4865426;29;20085;-85
2023/03/19 06:43:27;;;;;;;14.25;9.13;;;;;;;;;;4850029;29;20049;-85
2023/03/19 06:45:53;;;;;;;14.30;9.40;;;;;;;;;;4865622;29;20049;-85
2023/03/19 06:48:19;;;;;;;13.73;9.20;;;;;;;;;;4850085;29;20049;-85
2023/03/19 06:50:46;;;;;;;11.55;9.07;;;;;;;;;;4834640;29;20593;-86
2023/03/19 06:53:12;;;;;;;13.38;8.95;;;;;;;;;;4849938;29;20406;-85
2023/03/19 06:55:38;;;;;;;13.70;9.18;;;;;;;;;;4865197;29;20119;-85
2023/03/19 06:58:05;;;;;;;11.70;8.40;;;;;;;;;;4850066;29;20052;-87
2023/03/19 07:00:32;;;;;;;13.90;9.23;;;;;;;;;;4865301;29;20057;-85
2023/03/19 07:02:58;;;;;;;11.55;9.15;;;;;;;;;;4864934;29;20053;-87
2023/03/19 07:05:25;;;;;;;12.13;8.85;;;;;;;;;;4865601;29;20056;-85
2023/03/19 07:07:51;;;;;;;15.45;9.30;;;;;;;;;;4865163;29;20495;-86
2023/03/19 07:10:20;;;;;;;12.10;8.65;;;9.60;99.90;;;;;;4849841;29;20097;-86
2023/03/19 07:12:46;;;;;;;10.40;8.45;;;;;;;;;;4881622;29;20067;-85
2023/03/19 07:15:13;;;;;;;12.20;8.73;;;;;;;;;;4881616;29;20491;-85
2023/03/19 07:17:40;;;;;;;11.85;8.38;;;;;;;;;;4865353;29;20056;-85
2023/03/19 07:20:07;;;;;;;12.60;9.70;;;;;;;;;;4881547;29;20530;-85
2023/03/19 07:22:33;;;;;;;14.13;9.15;;;;;;;;;;4880416;29;20045;-84
2023/03/19 07:24:59;;;;;;;12.80;9.30;;;;;;;;;;4881610;29;20047;-85
2023/03/19 07:27:25;;;;;;;11.50;9.52;;;;;;;;;;4864601;29;20077;-85
2023/03/19 07:29:51;;;;;;;13.02;9.65;;;;;;;;;;4849367;29;20064;-84
2023/03/19 07:32:17;;;;;;;14.63;8.98;;;;;;;;;;4864214;29;20056;-84
2023/03/19 07:34:43;;;;;;;14.23;9.88;;;;;;;;;;4849361;29;20056;-85
2023/03/19 07:37:09;;;;;;;13.25;9.90;;;;;;;;;;4849224;29;20185;-85
2023/03/19 07:39:35;;;;;;;13.70;9.70;;;;;;;;;;4864494;29;20510;-85
2023/03/19 07:42:02;;;;;;;18.30;9.73;;;;;;;;;;4834110;29;20136;-86
2023/03/19 07:44:28;;;;;;;21.08;11.52;;;;;;;;;;4864335;29;20162;-88
2023/03/19 07:46:54;;;;;;;14.30;10.32;;;;;;;;;;4849060;29;20502;-87
2023/03/19 07:49:20;;;;;;;14.40;10.65;;;;;;;;;;4833990;29;20407;-85
2023/03/19 07:51:46;;;;;;;20.88;10.90;;;;;;;;;;4849181;29;20059;-85
2023/03/19 07:54:12;;;;;;;13.80;10.43;;;;;;;;;;4849560;29;20136;-85
2023/03/19 07:56:38;;;;;;;16.70;10.85;;;;;;;;;;4849196;29;20041;-84
2023/03/19 07:59:04;;;;;;;18.73;12.25;;;;;;;;;;4849267;29;20105;-84
2023/03/19 08:01:30;;;;;;;18.25;11.38;;;;;;;;;;4864461;29;20140;-90
2023/03/19 08:03:56;;;;;;;16.92;10.80;;;;;;;;;;4849159;29;20391;-88
2023/03/19 08:06:23;;;;;;;18.23;11.95;;;;;;;;;;4849013;29;20127;-89
2023/03/19 08:08:49;;;;;;;22.67;11.50;;;;;;;;;;4864118;29;20045;-89
2023/03/19 08:11:15;;;;;;;24.10;14.68;;;;;;;;;;4834105;29;20091;-90
2023/03/19 08:13:42;;;;;;;22.20;14.63;;;;;;;;;;4864002;29;20463;-87
2023/03/19 08:16:08;;;;;;;21.90;14.82;;;;;;;;;;4864523;29;20053;-89
2023/03/19 08:18:35;;;;;;;23.10;15.95;;;;;;;;;;4871078;29;20087;-88
2023/03/19 08:21:01;;;;;;;23.20;15.70;;;;;;;;;;4864160;29;20108;-90
2023/03/19 08:23:27;;;;;;;25.25;16.55;;;;;;;;;;4848312;29;20494;-89
2023/03/19 08:25:55;;;;;;;23.75;15.98;;;;;;;;;;4848927;29;20140;-91
2023/03/19 08:28:21;;;;;;;22.02;15.95;;;;;;;;;;4848374;29;20045;-90
2023/03/19 08:30:48;;;;;;;23.38;16.17;;;;;;;;;;4863979;29;20041;-90
2023/03/19 08:33:14;;;;;;;30.60;15.98;;;;;;;;;;4833829;29;20053;-91
2023/03/19 08:35:40;;;;;;;24.02;15.93;;;;;;;;;;4863885;29;20060;-90
2023/03/19 08:38:07;;;;;;;23.50;16.52;;;;;;;;;;4848067;29;20060;-90
2023/03/19 08:40:33;;;;;;;25.08;15.80;;;;;;;;;;4833821;29;20554;-91
2023/03/19 08:43:00;;;;;;;24.20;17.50;;;;;;;;;;4848380;29;20140;-91
2023/03/19 08:45:26;;;;;;;24.52;16.50;;;;;;;;;;4863545;29;20522;-86
2023/03/19 08:47:52;;;;;;;24.02;16.65;;;;;;;;;;4833659;29;20033;-89
2023/03/19 08:50:18;;;;;;;24.58;15.65;;;;;;;;;;4833017;29;20048;-90
2023/03/19 08:52:45;;;;;;;26.50;17.60;;;;;;;;;;4848154;29;20409;-89
2023/03/19 08:55:11;;;;;;;22.52;15.90;;;;;;;;;;4848313;29;20132;-90
2023/03/19 08:57:37;;;;;;;24.73;17.30;;;;;;;;;;4834354;29;20443;-90
2023/03/19 09:00:04;;;;;;;27.52;17.58;;;10.40;99.90;;;;;;4848163;29;20045;-91
2023/03/19 09:02:30;;;;;;;27.33;17.50;;;10.20;99.90;;;;;;4848881;29;20132;-89
2023/03/19 09:04:57;;;;;;;21.42;14.30;;;;;;;;;;4864179;29;20135;-90
2023/03/19 09:07:23;;;;;;;27.83;15.52;;;;;;;;;;4848517;29;20037;-90
2023/03/19 09:09:49;;;;;;;22.50;15.73;;;;;;;;;;4833271;29;20117;-88
2023/03/19 09:12:16;;;;;;;24.90;16.65;;;10.50;99.90;;;;;;4848106;29;20080;-90
2023/03/19 09:14:42;;;;;;;23.63;16.15;;;;;;;;;;4847604;29;20115;-89
2023/03/19 09:17:09;;;;;;;22.65;15.25;;;;;;;;;;4863284;29;20435;-89
2023/03/19 09:19:36;;;;;;;23.02;15.95;;;;;;;;;;4862946;29;20060;-90
2023/03/19 09:22:02;;;;;;;25.25;17.08;;;;;;;;;;4832767;29;20049;-89
2023/03/19 09:24:28;;;;;;;26.98;16.58;;;;;;;;;;4847451;29;20501;-89
2023/03/19 09:26:55;;;;;;;19.25;13.95;;;;;;;;;;4847462;29;20516;-88
2023/03/19 09:29:21;;;;;;;23.38;15.13;;;;;;;;;;4847984;29;20101;-89
2023/03/19 09:31:47;;;;;;;22.42;15.82;;;;;;;;;;4862915;29;20053;-89
2023/03/19 09:34:13;;;;;;;24.35;16.27;;;;;;;;;;4847888;29;20049;-90
2023/03/19 09:36:39;;;;;;;23.15;14.45;;;;;;;;;;4863506;29;20053;-89
2023/03/19 09:39:07;;;;;;;28.30;16.23;;;;;;;;;;4881069;29;20447;-90
2023/03/19 09:41:38;;;;;;;23.65;16.23;;;;;;;;;;4879684;29;20049;-90
2023/03/19 09:44:04;;;;;;;25.33;16.88;;;;;;;;;;4879178;29;20085;-91
2023/03/19 09:46:33;;;;;;;25.65;17.10;;;;;;;;;;4863206;29;20078;-90
2023/03/19 09:49:05;;;;;;;25.98;17.85;;;;;;;;;;4863396;29;20449;-90
2023/03/19 09:51:44;;;;;;;29.50;18.08;;;;;;;;;;4879655;29;20060;-91
2023/03/19 09:54:22;;;;;;;25.67;16.83;;;;;;;;;;4863405;29;20073;-86
2023/03/19 09:56:48;;;;;;;23.50;15.32;;;;;;;;;;4884674;29;20128;-87
2023/03/19 09:59:14;;;;;;;26.58;17.08;;;;;;;;;;4884399;29;20132;-87
2023/03/19 10:01:44;;;;;;;25.73;16.92;;;;;;;;;;4867751;29;20143;-89
2023/03/19 10:04:29;;;;;;;26.20;17.45;;;;;;;;;;4867320;29;20506;-89
2023/03/19 10:07:01;;;;;;;29.95;18.27;;;;;;;;;;4852626;29;20406;-86
2023/03/19 10:09:57;;;;;;;26.88;17.23;;;;;;;;;;4867487;29;20045;-90
2023/03/19 10:12:35;;;;;;;25.73;16.23;;;;;;;;;;4874017;29;20061;-89
2023/03/19 10:15:04;;;;;;;24.30;15.07;;;;;;;;;;4865931;29;20494;-90
2023/03/19 10:17:37;;;;;;;25.20;17.05;;;;;;;;;;4851369;29;20103;-87
2023/03/19 10:20:09;;;;;;;29.30;17.33;;;;;;;;;;4851791;29;20049;-86
2023/03/19 10:22:41;;;;;;;26.65;16.40;;;;;;;;;;4851963;29;20406;-86
2023/03/19 10:25:14;;;;;;;19.10;14.63;;;;;;;;;;4852251;29;20052;-88
2023/03/19 10:27:41;;;;;;;29.27;17.17;;;;;;;;;;4884721;29;20041;-89
2023/03/19 10:30:15;;;;;;;27.40;16.42;;;;;;;;;;4884681;29;20532;-89
2023/03/19 10:32:42;;;;;;;32.60;18.42;;;;;;;;;;4884232;29;20537;-87
2023/03/19 10:35:19;;;;;;;29.88;17.52;;;;;;;;;;4885694;29;20096;-90
2023/03/19 10:37:46;;;;;;;26.05;16.35;;;;;;;;;;4868766;29;20073;-90
2023/03/19 10:40:38;;;;;;;24.90;14.13;;;;;;;;;;4853044;29;20093;-90
2023/03/19 10:43:11;;;;;;;30.65;17.38;;;;;;;;;;4865849;29;20056;-90
2023/03/19 10:45:40;;;;;;;29.42;16.67;;;;;;;;;;4866887;29;20109;-90
2023/03/19 10:48:11;;;;;;;30.08;18.13;;;;;;;;;;4851249;29;20111;-90
2023/03/19 10:50:41;;;;;;;29.42;18.13;;;;;;;;;;4866649;29;20049;-90
2023/03/19 10:53:24;;;;;;;30.52;17.60;;;;;;;;;;4851199;29;20049;-90
2023/03/19 10:55:54;;;;;;;31.95;17.05;;;;;;;;;;4866762;29;20515;-90
2023/03/19 10:58:23;;;;;;;29.55;17.17;;;;;;;;;;4851130;29;20183;-91
2023/03/19 11:00:55;;;;;;;31.35;18.33;;;;;;;;;;4851309;29;20406;-88
2023/03/19 11:03:33;;;;;;;27.65;14.65;;;;;;;;;;4851697;29;20061;-91
2023/03/19 11:06:19;;;;;;;29.27;17.27;;;;;;;;;;4883721;29;20049;-91
2023/03/19 11:08:55;;;;;;;29.00;16.50;;;;;;;;;;4882870;29;20052;-91
2023/03/19 11:11:25;;;;;;;27.00;16.55;;;;;;;;;;4883619;29;20052;-90
2023/03/19 11:13:51;;;;;;;28.65;16.98;;;;;;;;;;4851398;29;20061;-90
2023/03/19 11:16:17;;;;;;;34.47;16.58;;;;;;;;;;4883919;29;20086;-89
2023/03/19 11:18:46;;;;;;;32.33;17.15;;;;;;;;;;4851693;29;20072;-90
2023/03/19 11:21:21;;;;;;;32.78;17.30;;;;;;;;;;4883998;29;20406;-91
2023/03/19 11:23:51;;;;;;;29.30;17.05;;;;;;;;;;4883648;29;20177;-90
2023/03/19 11:26:23;;;;;;;29.55;17.88;;;;;;;;;;4866246;29;20085;-89
2023/03/19 11:28:53;;;;;;;32.85;18.75;;;;;;;;;;4865838;29;20414;-88
2023/03/19 11:31:19;;;;;;;34.50;19.30;;;;;;;;;;4850407;29;20052;-87
2023/03/19 11:33:49;;;;;;;36.08;18.73;;;;;;;;;;4865653;29;20053;-86
2023/03/19 11:36:21;;;;;;;30.10;17.67;;;;;;;;;;4865415;29;20512;-88
2023/03/19 11:39:02;;;;;;;31.63;16.40;;;;;;;;;;4865528;29;20051;-89
2023/03/19 11:41:34;;;;;;;31.27;16.83;;;;;;;;;;4865302;29;20048;-88
2023/03/19 11:44:27;;;;;;;30.80;17.40;;;;;;;;;;4881781;29;20049;-87
2023/03/19 11:46:54;;;;;;;33.47;16.77;;;;;;;;;;4866278;29;20082;-88
2023/03/19 11:49:24;;;;;;;34.03;16.40;;;;;;;;;;4881430;29;20049;-87
2023/03/19 11:51:55;;;;;;;27.58;16.17;;;;;;;;;;4882074;29;20057;-88
2023/03/19 11:54:40;;;;;;;33.53;17.98;;;10.20;99.90;;;;;;4865744;29;20084;-89
2023/03/19 11:57:10;;;;;;;30.45;17.38;;;;;;;;;;4865204;29;20112;-88
2023/03/19 12:00:09;;;;;;;34.05;18.92;;;10.00;99.90;;;;;;4849928;29;20044;-88
2023/03/19 12:02:44;;;;;;;32.75;17.52;;;;;;;;;;4864762;29;20157;-87
2023/03/19 12:05:17;;;;;;;33.15;18.40;;;;;;;;;;4865391;29;20398;-86
2023/03/19 12:07:56;;;;;;;29.67;17.27;;;;;;;;;;4881702;29;20124;-88
2023/03/19 12:10:42;;;;;;;36.60;18.15;;;;;;;;;;4881596;29;20128;-90
2023/03/19 12:13:31;;;;;;;31.38;16.48;;;;;;;;;;4849643;29;20052;-88
2023/03/19 12:16:10;;;;;;;36.63;19.33;;;;;;;;;;4873396;29;20053;-87
2023/03/19 12:19:10;;;;;;;34.30;18.15;;;10.00;99.90;;;;;;4864748;29;20111;-86
2023/03/19 12:21:51;;;;;;;35.17;17.52;;;;;;;;;;4864675;29;20529;-89
2023/03/19 12:24:36;;;;;;;32.78;17.73;;;;;;;;;;4865029;29;20080;-88
2023/03/19 12:27:13;;;;;;;33.70;17.73;;;;;;;;;;4864841;29;20137;-88
2023/03/19 12:29:39;;;;;;;34.30;17.98;;;;;;;;;;4881469;29;20453;-87
2023/03/19 12:32:11;;;;;;;29.63;16.23;;;;;;;;;;4865118;29;20049;-89
2023/03/19 12:34:40;;;;;;;32.70;17.25;;;;;;;;;;4864753;29;20045;-87
2023/03/19 12:37:10;;;;;;;37.05;18.67;;;;;;;;;;4849572;29;20053;-88
2023/03/19 12:39:40;;;;;;;28.83;16.65;;;;;;;;;;4864567;29;20041;-90
2023/03/19 12:42:08;;;;;;;30.10;15.65;;;;;;;;;;4880601;29;20132;-88
2023/03/19 12:44:37;;;;;;;33.60;17.00;;;;;;;;;;4848200;29;20051;-88
2023/03/19 12:47:16;;;;;;;28.70;15.25;;;;;;;;;;4880180;29;20053;-88
2023/03/19 12:49:45;;;;;;;26.23;13.80;;;;;;;;;;4863913;29;20136;-89
2023/03/19 12:52:25;;;;;;;24.25;13.43;;;;;;;;;;4863869;29;20053;-88
2023/03/19 12:55:09;;;;;;;26.90;14.32;;;;;;;;;;4880085;29;20053;-87
2023/03/19 12:57:41;;;;;;;30.85;15.00;;;;;;;;;;4863468;29;20064;-88
2023/03/19 13:00:16;;;;;;;25.50;13.82;;;;;;;;;;4863220;29;20053;-89
2023/03/19 13:02:56;;;;;;;23.35;13.55;;;;;;;;;;4863408;29;20045;-88
2023/03/19 13:05:35;;;;;;;22.98;12.10;;;;;;;;;;4880251;29;20048;-88
2023/03/19 13:08:04;;;;;;;21.85;12.70;;;;;;;;;;4880487;29;20048;-87
2023/03/19 13:10:31;;;;;;;29.30;13.60;;;;;;;;;;4848408;29;20045;-88
2023/03/19 13:12:58;;;;;;;26.20;13.82;;;;;;;;;;4863340;29;20128;-86
2023/03/19 13:15:30;;;;;;;29.00;14.77;;;;;;;;;;4880328;29;20455;-89
2023/03/19 13:17:57;;;;;;;27.75;14.38;;;;;;;;;;4863647;29;20413;-86
2023/03/19 13:20:47;;;;;;;24.95;13.50;;;10.30;99.90;;;;;;4863355;29;20388;-88
2023/03/19 13:23:17;;;;;;;24.50;14.90;;;;;;;;;;4879531;29;20550;-86
2023/03/19 13:25:49;;;;;;;27.95;13.52;;;;;;;;;;4879598;29;20418;-87
2023/03/19 13:28:22;;;;;;;24.65;12.15;;;;;;;;;;4848342;29;20049;-86
2023/03/19 13:31:08;;;;;;;27.45;12.65;;;;;;;;;;4863251;29;20128;-86
2023/03/19 13:33:37;;;;;;;23.23;12.10;;;;;;;;;;4862946;29;20076;-86
2023/03/19 13:36:13;;;;;;;21.15;11.30;;;;;;;;;;4863253;29;20055;-87
2023/03/19 13:38:40;;;;;;;20.75;12.55;;;;;;;;;;4863292;29;20055;-85
2023/03/19 13:41:26;;;;;;;28.58;14.23;;;;;;;;;;4847640;29;20049;-87
2023/03/19 13:43:53;;;;;;;28.25;14.70;;;;;;;;;;4847668;29;20048;-86
2023/03/19 13:46:21;;;;;;;26.58;14.10;;;;;;;;;;4847871;29;20041;-86
2023/03/19 13:48:47;;;;;;;24.00;11.73;;;;;;;;;;4863829;29;20464;-88
2023/03/19 13:51:20;;;;;;;25.10;13.60;;;;;;;;;;4847625;29;20136;-86
2023/03/19 13:54:11;;;;;;;22.90;12.60;;;10.20;99.90;;;;;;4863628;29;20045;-89
2023/03/19 13:56:59;;;;;;;23.90;12.93;;;;;;;;;;4863264;29;20095;-89
2023/03/19 13:59:30;;;;;;;27.98;13.88;;;;;;;;;;4863842;29;20526;-86
2023/03/19 14:01:58;;;;;;;27.38;13.63;;;;;;;;;;4832778;29;20045;-89
2023/03/19 14:04:29;;;;;;;25.83;13.13;;;;;;;;;;4847794;29;20456;-90
2023/03/19 14:07:10;;;;;;;26.20;13.63;;;;;;;;;;4863458;29;20414;-87
2023/03/19 14:09:48;;;;;;;31.48;13.43;;;;;;;;;;4862564;29;20148;-87
2023/03/19 14:12:17;;;;;;;24.17;13.50;;;;;;;;;;4847641;29;20487;-85
2023/03/19 14:14:45;;;;;;;26.35;14.20;;;;;;;;;;4863148;29;20521;-88
2023/03/19 14:17:15;;;;;;;27.77;15.82;;;;;;;;;;4847739;29;20057;-87
2023/03/19 14:19:42;;;;;;;23.95;14.15;;;;;;;;;;4847814;29;20097;-88
2023/03/19 14:22:20;;;;;;;32.60;14.38;;;;;;;;;;4847879;29;20057;-88
2023/03/19 14:25:01;;;;;;;25.42;13.15;;;;;;;;;;4878719;29;20234;-88